Cut Bank Municipal Airport Cut Bank US
ICAO: KCTB
IATA: CTB
Category: Medium
Scheduled Services: No

Elevation: 3854 ft
TransAlt. 18000 ft.

Airport Communications:
SALT LAKE CITY CNTR:133.4
ASOS:119.025
GREAT FALLS RDO:122.2
CTAF/UNICOM:122.8

KCTB Zoom In..

Runways:

(A) RW 05 length 5302 ft width 75 ft
---- / hdg 47

(B) RW 13 length 5300 ft width 75 ft
---- / hdg 135

(C) RW 23 length 5302 ft width 75 ft
---- / hdg 227

(D) RW 31 length 5300 ft width 75 ft
---- / hdg 315

Location; KCTB
Day. 24 / Time. 01.56 Zulu
* Altimeter: 29.93
* Temperature: -02° c. -28.4°f.
* Wind from: 170° Speed 08 kn.
Dewpoint: -08° c.
Visibility: 10 Statute Miles.
Clouds: Clear (automated report).

KCTB 240156Z AUTO 17008KT 10SM CLR M02/M08 A2993 RMK AO2 SLP178 T10221078


Wind From 170°
Speed 08 kn.

YouTube Music Video
 
jpsmedia.com for Web Design  worldairports.se 2018   terms of use